Time;durP1;ratioP1;P1;durP2;ratioP2;P2;SDS_P1;SDS_P2;PMS_P1;PMS_P2;Temp;Humidity;BMP_temperature;BMP_pressure;BME280_temperature;BME280_humidity;BME280_pressure;Samples;Min_cycle;Max_cycle;Signal;HPM_P1;HPM_P2
2022/12/24 00:00:36;;;;;;;63.58;22.25;;;6.10;99.90;;;;;;5029721;28;20401;-87
2022/12/24 00:03:02;;;;;;;52.70;21.48;;;6.00;99.90;;;;;;5046996;28;20059;-86
2022/12/24 00:05:28;;;;;;;58.92;22.40;;;6.10;99.90;;;;;;5046954;28;20056;-87
2022/12/24 00:07:54;;;;;;;49.05;21.73;;;6.30;99.90;;;;;;5029248;28;20053;-86
2022/12/24 00:10:22;;;;;;;53.75;21.38;;;6.20;99.90;;;;;;5047347;28;20041;-87
2022/12/24 00:12:47;;;;;;;56.17;22.00;;;6.00;99.90;;;;;;5045414;28;20049;-87
2022/12/24 00:15:13;;;;;;;49.25;21.08;;;6.10;99.90;;;;;;5030159;28;20040;-87
2022/12/24 00:17:39;;;;;;;60.25;21.17;;;6.00;99.90;;;;;;5030158;28;20492;-87
2022/12/24 00:20:08;;;;;;;53.08;21.73;;;6.20;99.90;;;;;;5030042;28;20155;-87
2022/12/24 00:22:34;;;;;;;57.30;20.85;;;6.20;99.90;;;;;;5029570;28;20044;-87
2022/12/24 00:25:00;;;;;;;63.85;22.48;;;6.10;99.90;;;;;;5029868;28;20385;-86
2022/12/24 00:27:25;;;;;;;59.60;23.05;;;6.10;99.90;;;;;;5046351;28;20048;-86
2022/12/24 00:29:51;;;;;;;57.58;21.58;;;6.20;99.90;;;;;;5045247;28;20128;-87
2022/12/24 00:32:17;;;;;;;60.00;22.50;;;6.20;99.90;;;;;;5030293;28;20051;-87
2022/12/24 00:34:43;;;;;;;65.85;24.15;;;6.00;99.90;;;;;;5046577;28;20045;-88
2022/12/24 00:37:09;;;;;;;57.95;23.20;;;6.00;99.90;;;;;;5029916;28;20102;-87
2022/12/24 00:39:34;;;;;;;52.85;22.02;;;6.10;99.90;;;;;;5046798;28;20045;-86
2022/12/24 00:42:00;;;;;;;58.50;22.48;;;6.50;99.90;;;;;;5045142;28;20466;-87
2022/12/24 00:44:26;;;;;;;60.30;23.02;;;6.70;99.90;;;;;;5030045;28;20470;-87
2022/12/24 00:46:52;;;;;;;63.30;22.23;;;5.90;99.90;;;;;;5046012;28;20053;-86
2022/12/24 00:49:17;;;;;;;64.20;22.75;;;6.10;99.90;;;;;;5046663;28;20054;-87
2022/12/24 00:51:46;;;;;;;58.17;22.63;;;6.00;99.90;;;;;;5045372;28;20164;-85
2022/12/24 00:54:13;;;;;;;57.13;23.17;;;6.10;99.90;;;;;;5046070;28;20051;-86
2022/12/24 00:56:39;;;;;;;49.85;21.50;;;6.00;99.90;;;;;;5046930;28;20048;-87
2022/12/24 00:59:05;;;;;;;59.00;22.90;;;5.90;99.90;;;;;;5028134;28;20426;-87
2022/12/24 01:01:30;;;;;;;57.03;22.25;;;6.50;99.90;;;;;;5029753;28;20076;-86
2022/12/24 01:07:04;;;;;;;78.30;24.58;;;5.90;99.90;;;;;;5124713;28;20582;-86
2022/12/24 01:09:32;;;;;;;70.10;23.92;;;5.90;99.90;;;;;;5090341;28;20039;-86
2022/12/24 01:12:00;;;;;;;63.08;23.35;;;6.00;99.90;;;;;;5105908;28;20041;-86
2022/12/24 01:14:28;;;;;;;66.05;22.67;;;6.10;99.90;;;;;;5107451;28;20059;-86
2022/12/24 01:16:54;;;;;;;63.45;22.23;;;6.10;99.90;;;;;;5107023;28;20047;-86
2022/12/24 01:19:20;;;;;;;56.80;22.38;;;6.00;99.90;;;;;;5106788;28;20065;-86
2022/12/24 01:21:58;;;;;;;;;;;;;;;;;;;;;
2022/12/24 01:24:26;;;;;;;79.82;25.08;;;6.00;99.90;;;;;;5124359;28;20490;-86
2022/12/24 01:27:05;;;;;;;;;;;;;;;;;;;;;
2022/12/24 01:29:35;;;;;;;62.30;23.73;;;5.90;99.90;;;;;;5107119;28;20047;-86
2022/12/24 01:32:21;;;;;;;73.13;23.02;;;6.00;99.90;;;;;;5105967;28;20531;-86
2022/12/24 01:34:54;;;;;;;59.33;22.85;;;6.10;99.90;;;;;;5090081;28;20382;-86
2022/12/24 01:37:26;;;;;;;52.05;22.02;;;6.40;99.90;;;;;;5107051;28;20478;-86
2022/12/24 01:43:22;;;;;;;50.67;22.25;;;6.20;99.90;;;;;;5089266;28;20651;-85
2022/12/24 01:46:01;;;;;;;;;;;;;;;;;;;;;
2022/12/24 01:48:36;;;;;;;55.85;23.15;;;6.10;99.90;;;;;;5107036;28;20108;-85
2022/12/24 01:51:18;;;;;;;56.58;22.58;;;6.10;99.90;;;;;;5106805;28;20134;-85
2022/12/24 01:53:53;;;;;;;67.00;24.88;;;6.00;99.90;;;;;;5088658;28;20047;-86
2022/12/24 01:56:24;;;;;;;52.95;22.88;;;6.10;99.90;;;;;;5107010;28;20047;-86
2022/12/24 01:59:00;;;;;;;75.88;24.50;;;6.00;99.90;;;;;;5105457;28;20070;-85
2022/12/24 02:01:41;;;;;;;64.20;23.70;;;6.20;99.90;;;;;;5106316;28;20122;-84
2022/12/24 02:04:50;;;;;;;53.53;23.45;;;6.60;99.90;;;;;;5105974;28;20495;-86
2022/12/24 02:07:26;;;;;;;;;;;;;;;;;;;;;
2022/12/24 02:10:00;;;;;;;70.10;25.63;;;6.50;99.90;;;;;;5122734;28;20047;-85
2022/12/24 02:12:31;;;;;;;85.82;26.88;;;6.10;99.90;;;;;;5088280;28;20101;-85
2022/12/24 02:14:58;;;;;;;56.50;24.08;;;5.70;99.90;;;;;;5095027;28;20050;-84
2022/12/24 02:17:23;;;;;;;65.13;25.67;;;6.00;99.90;;;;;;5075459;28;20047;-85
2022/12/24 02:20:20;;;;;;;92.85;27.23;;;6.40;99.90;;;;;;5092284;28;20112;-85
2022/12/24 02:22:46;;;;;;;109.45;29.48;;;6.00;99.90;;;;;;5091213;28;20052;-86
2022/12/24 02:25:40;;;;;;;84.80;27.35;;;6.10;99.90;;;;;;5092737;28;20497;-85
2022/12/24 02:28:17;;;;;;;63.15;24.50;;;5.90;99.90;;;;;;5091021;28;20472;-84
2022/12/24 02:30:52;;;;;;;68.55;26.02;;;6.10;99.90;;;;;;5092677;28;20047;-86
2022/12/24 02:33:24;;;;;;;75.00;26.85;;;5.90;99.90;;;;;;5092526;28;20414;-85
2022/12/24 02:35:58;;;;;;;62.42;24.13;;;6.00;99.90;;;;;;5074473;28;20395;-86
2022/12/24 02:38:30;;;;;;;;;;;6.10;99.90;;;;;;5092663;28;20134;-85
2022/12/24 02:41:09;;;;;;;73.47;26.17;;;6.00;99.90;;;;;;5108557;28;19919;-85
2022/12/24 02:43:42;;;;;;;62.72;26.02;;;6.00;99.90;;;;;;5073874;28;20383;-84
2022/12/24 02:46:15;;;;;;;72.15;25.67;;;6.10;99.90;;;;;;5092334;28;20560;-84
2022/12/24 02:48:47;;;;;;;61.75;24.60;;;6.20;99.90;;;;;;5091915;28;20177;-84
2022/12/24 02:51:20;;;;;;;105.85;29.05;;;6.20;99.90;;;;;;5108238;28;20406;-85
2022/12/24 02:53:54;;;;;;;64.82;25.13;;;6.40;99.90;;;;;;5091569;28;20036;-84
2022/12/24 02:56:41;;;;;;;64.03;25.10;;;6.30;99.90;;;;;;5092385;28;20052;-86
2022/12/24 02:59:35;;;;;;;69.75;26.40;;;5.40;99.90;;;;;;5074534;28;20487;-85
2022/12/24 03:02:23;;;;;;;61.72;24.38;;;6.20;99.90;;;;;;5090550;28;20056;-85
2022/12/24 03:05:04;;;;;;;75.57;26.60;;;6.10;99.90;;;;;;5090338;28;20049;-85
2022/12/24 03:07:39;;;;;;;63.75;26.02;;;7.10;99.90;;;;;;5091862;28;20050;-85
2022/12/24 03:10:21;;;;;;;73.05;26.50;;;6.20;99.90;;;;;;5073903;28;20394;-86
2022/12/24 03:12:53;;;;;;;81.78;27.23;;;6.20;99.90;;;;;;5072533;28;20498;-86
2022/12/24 03:15:21;;;;;;;64.18;24.63;;;6.60;99.90;;;;;;5074878;28;20111;-85
2022/12/24 03:17:58;;;;;;;70.15;26.50;;;6.20;99.90;;;;;;5089901;28;20167;-85
2022/12/24 03:20:36;;;;;;;72.70;26.35;;;6.30;99.90;;;;;;5091278;28;20122;-85
2022/12/24 03:23:15;;;;;;;88.32;28.67;;;6.20;99.90;;;;;;5074160;28;20209;-85
2022/12/24 03:25:58;;;;;;;;;;;;;;;;;;;;;
2022/12/24 03:28:45;;;;;;;78.43;27.92;;;5.80;99.90;;;;;;5108946;28;20051;-85
2022/12/24 03:31:22;;;;;;;;;;;;;;;;;;;;;
2022/12/24 03:34:02;;;;;;;65.38;25.60;;;6.40;99.90;;;;;;5090394;28;20131;-85
2022/12/24 03:36:29;;;;;;;56.55;24.90;;;6.40;99.90;;;;;;5074441;28;20048;-85
2022/12/24 03:38:57;;;;;;;59.25;24.33;;;6.60;99.90;;;;;;5089644;28;20083;-86
2022/12/24 03:41:35;;;;;;;48.33;23.02;;;7.50;99.90;;;;;;5074609;28;20404;-85
2022/12/24 03:44:13;;;;;;;50.35;22.38;;;6.80;99.90;;;;;;5073297;28;20047;-85
2022/12/24 03:46:42;;;;;;;41.58;20.67;;;7.20;99.90;;;;;;5089995;28;20422;-85
2022/12/24 03:49:36;;;;;;;43.00;19.15;;;7.40;99.90;;;;;;5090879;28;20512;-84
2022/12/24 03:52:10;;;;;;;46.95;21.08;;;7.00;99.90;;;;;;5088005;28;20074;-85
2022/12/24 03:54:40;;;;;;;37.83;18.80;;;6.90;99.90;;;;;;5090018;28;20044;-85
2022/12/24 03:57:14;;;;;;;40.83;18.20;;;7.50;99.90;;;;;;5089826;28;20043;-84
2022/12/24 04:00:10;;;;;;;;;;;;;;;;;;;;;
2022/12/24 04:02:48;;;;;;;;;;;;;;;;;;;;;
2022/12/24 04:05:26;;;;;;;32.03;13.60;;;7.60;99.90;;;;;;5091055;28;20144;-84
2022/12/24 04:07:56;;;;;;;28.38;12.20;;;7.20;99.90;;;;;;5090103;28;20391;-85
2022/12/24 04:10:40;;;;;;;33.97;12.75;;;7.30;99.90;;;;;;5073265;28;20051;-86
2022/12/24 04:20:16;;;;;;;;;;;;;;;;;;;;;
2022/12/24 04:23:14;;;;;;;27.75;10.95;;;7.30;99.90;;;;;;5106737;28;20069;-85
2022/12/24 04:29:45;;;;;;;27.75;11.93;;;7.00;99.90;;;;;;5028654;28;20112;-85
2022/12/24 04:31:48;;;;;;;28.48;11.50;;;7.30;99.90;;;;;;5078537;28;20527;-85
2022/12/24 04:34:41;;;;;;;;;;;;;;;;;;;;;
2022/12/24 04:40:32;;;;;;;39.75;11.18;;;7.50;99.90;;;;;;5050569;28;20575;-87
2022/12/24 04:43:20;;;;;;;35.30;11.07;;;7.60;99.90;;;;;;5050123;28;20059;-86
2022/12/24 04:49:53;;;;;;;;;;;;;;;;;;;;;
2022/12/24 04:59:18;;;;;;;46.13;8.18;;;7.60;99.90;;;;;;5038384;28;20417;-86
2022/12/24 05:02:20;;;;;;;55.08;6.88;;;7.60;99.90;;;;;;4991297;28;20051;-86
2022/12/24 05:05:54;;;;;;;51.40;6.65;;;7.70;99.90;;;;;;5088317;28;20047;-86
2022/12/24 05:08:37;;;;;;;;;;;;;;;;;;;;;
2022/12/24 05:15:19;;;;;;;47.47;6.65;;;7.60;99.90;;;;;;5011735;28;20131;-86
2022/12/24 05:18:44;;;;;;;52.42;7.32;;;7.50;99.90;;;;;;5043496;28;20070;-85
2022/12/24 05:28:00;;;;;;;;;;;;;;;;;;;;;
2022/12/24 05:31:38;;;;;;;;;;;;;;;;;;;;;
2022/12/24 05:35:02;;;;;;;55.60;7.80;;;7.70;99.90;;;;;;5005568;28;20182;-87
2022/12/24 05:37:51;;;;;;;52.33;6.35;;;7.30;99.90;;;;;;5085448;28;20059;-86
2022/12/24 05:44:30;;;;;;;55.78;7.05;;;7.50;99.90;;;;;;5005105;28;20135;-86
2022/12/24 05:47:40;;;;;;;49.33;5.90;;;7.70;99.90;;;;;;5041537;28;20054;-86
2022/12/24 05:51:36;;;;;;;56.80;7.47;;;7.70;99.90;;;;;;5074469;28;20059;-86
2022/12/24 05:54:45;;;;;;;47.70;6.80;;;7.80;99.90;;;;;;5088120;28;20128;-86
2022/12/24 06:01:25;;;;;;;;;;;;;;;;;;;;;
2022/12/24 06:05:25;;;;;;;61.13;7.75;;;7.70;99.90;;;;;;4994899;28;20491;-85
2022/12/24 06:08:12;;;;;;;61.15;7.18;;;8.00;99.90;;;;;;5002596;28;20049;-86
2022/12/24 06:11:44;;;;;;;68.93;8.43;;;7.40;99.90;;;;;;5038085;28;20111;-86
2022/12/24 06:14:07;;;;;;;;;;;;;;;;;;;;;
2022/12/24 06:17:37;;;;;;;57.28;6.43;;;7.40;99.90;;;;;;5065501;28;20052;-85
2022/12/24 06:20:13;;;;;;;68.07;6.68;;;7.70;99.90;;;;;;4991886;28;20532;-87
2022/12/24 06:30:27;;;;;;;;;;;;;;;;;;;;;
2022/12/24 06:34:01;;;;;;;75.18;7.60;;;7.10;99.90;;;;;;5069827;28;20044;-86
2022/12/24 06:37:17;;;;;;;;;;;;;;;;;;;;;
2022/12/24 06:40:13;;;;;;;;;;;;;;;;;;;;;
2022/12/24 06:47:21;;;;;;;63.17;7.30;;;7.30;99.90;;;;;;4970328;28;20064;-86
2022/12/24 06:50:03;;;;;;;67.30;6.70;;;7.90;99.90;;;;;;4936228;28;20061;-86
2022/12/24 06:56:03;;;;;;;;;;;;;;;;;;;;;
2022/12/24 06:59:56;;;;;;;61.97;7.78;;;7.40;99.90;;;;;;5030083;28;20153;-86
2022/12/24 07:05:52;;;;;;;67.25;7.45;;;7.20;99.90;;;;;;4954181;28;20044;-86
2022/12/24 07:15:47;;;;;;;68.35;7.72;;;7.50;99.90;;;;;;5000159;28;20416;-85
2022/12/24 07:18:51;;;;;;;67.25;7.15;;;7.40;99.90;;;;;;5043206;28;20470;-86
2022/12/24 07:21:48;;;;;;;;;;;;;;;;;;;;;
2022/12/24 07:25:03;;;;;;;53.28;6.80;;;7.60;99.90;;;;;;5048081;28;20055;-85
2022/12/24 07:27:51;;;;;;;62.90;7.40;;;7.40;99.90;;;;;;4984513;28;20178;-86
2022/12/24 07:30:28;;;;;;;55.08;6.65;;;7.70;99.90;;;;;;5011230;28;20065;-86
2022/12/24 07:32:58;;;;;;;66.88;6.90;;;7.70;99.90;;;;;;5009826;28;20103;-85
2022/12/24 07:36:20;;;;;;;62.22;8.15;;;7.90;99.90;;;;;;5027849;28;20056;-84
2022/12/24 07:41:40;;;;;;;56.70;6.22;;;7.40;99.90;;;;;;5028711;28;20060;-85
2022/12/24 07:47:15;;;;;;;77.20;6.95;;;7.20;99.90;;;;;;5010157;28;20125;-86
2022/12/24 07:50:26;;;;;;;;;;;;;;;;;;;;;
2022/12/24 07:53:46;;;;;;;53.65;6.43;;;7.30;99.90;;;;;;5009822;28;20046;-85
2022/12/24 07:56:22;;;;;;;52.13;8.05;;;7.10;99.90;;;;;;5020182;28;20052;-86
2022/12/24 07:59:18;;;;;;;59.70;7.93;;;7.00;99.90;;;;;;4992410;28;20045;-86
2022/12/24 08:02:04;;;;;;;49.70;7.30;;;6.80;99.90;;;;;;5009913;28;20097;-85
2022/12/24 08:05:37;;;;;;;54.08;7.43;;;7.30;99.90;;;;;;5010818;28;20104;-87
2022/12/24 08:08:03;;;;;;;47.80;6.38;;;7.40;99.90;;;;;;5008320;28;20381;-86
2022/12/24 08:10:33;;;;;;;59.50;7.80;;;7.50;99.90;;;;;;5010281;28;20481;-83
2022/12/24 08:12:59;;;;;;;53.63;7.78;;;7.20;99.90;;;;;;5008084;28;20041;-84
2022/12/24 08:15:28;;;;;;;66.32;8.10;;;7.10;99.90;;;;;;5010148;28;20064;-85
2022/12/24 08:17:58;;;;;;;47.53;7.20;;;7.30;99.90;;;;;;5009991;28;20136;-85
2022/12/24 08:20:24;;;;;;;54.22;7.47;;;7.30;99.90;;;;;;5009196;28;20080;-85
2022/12/24 08:22:52;;;;;;;59.03;7.65;;;7.30;99.90;;;;;;5010002;28;20162;-84
2022/12/24 08:25:20;;;;;;;53.63;7.55;;;7.40;99.90;;;;;;5037801;28;20049;-84
2022/12/24 08:27:55;;;;;;;53.88;6.68;;;7.40;99.90;;;;;;5022994;28;20057;-84
2022/12/24 08:30:24;;;;;;;57.78;7.57;;;7.40;99.90;;;;;;5012980;28;20362;-84
2022/12/24 08:33:01;;;;;;;61.38;8.45;;;7.60;99.90;;;;;;5025901;28;20045;-84
2022/12/24 08:35:37;;;;;;;65.97;8.50;;;7.70;99.90;;;;;;5026522;28;20056;-84
2022/12/24 08:38:03;;;;;;;60.92;7.75;;;7.70;99.90;;;;;;5026105;28;20585;-84
2022/12/24 08:40:34;;;;;;;63.92;9.43;;;7.70;99.90;;;;;;5009829;28;20081;-84
2022/12/24 08:43:01;;;;;;;69.18;9.20;;;7.70;99.90;;;;;;5040868;28;20053;-85
2022/12/24 08:45:27;;;;;;;63.42;8.65;;;7.80;99.90;;;;;;5027754;28;20064;-84
2022/12/24 08:47:53;;;;;;;61.08;8.48;;;7.90;99.90;;;;;;5036314;28;20125;-85
2022/12/24 08:50:24;;;;;;;60.45;7.80;;;8.00;99.90;;;;;;5048738;28;20066;-84
2022/12/24 08:53:04;;;;;;;55.72;7.30;;;7.80;99.90;;;;;;5048597;28;20036;-86
2022/12/24 08:55:36;;;;;;;63.88;7.95;;;8.00;99.90;;;;;;5048215;28;20041;-85
2022/12/24 08:58:04;;;;;;;49.70;8.50;;;8.00;99.90;;;;;;5031627;28;20126;-84
2022/12/24 09:00:37;;;;;;;67.20;8.43;;;8.20;99.90;;;;;;5049540;28;20133;-85
2022/12/24 09:03:08;;;;;;;69.15;9.63;;;8.00;99.90;;;;;;5047664;28;20040;-84
2022/12/24 09:05:55;;;;;;;60.47;8.40;;;8.10;99.90;;;;;;5049700;28;20525;-85
2022/12/24 09:12:03;;;;;;;;;;;;;;;;;;;;;
2022/12/24 09:19:03;;;;;;;59.55;8.10;;;8.20;99.90;;;;;;4980380;28;20063;-84
2022/12/24 09:21:59;;;;;;;50.90;7.25;;;8.20;99.90;;;;;;5049334;28;20243;-84
2022/12/24 09:24:27;;;;;;;56.28;7.63;;;8.40;99.90;;;;;;5026294;28;20044;-84
2022/12/24 09:26:53;;;;;;;57.33;8.10;;;8.20;99.90;;;;;;5019849;28;20045;-84
2022/12/24 09:29:23;;;;;;;48.40;7.28;;;8.30;99.90;;;;;;5033442;28;20115;-84
2022/12/24 09:32:03;;;;;;;54.30;7.00;;;8.30;99.90;;;;;;5033378;28;20056;-85
2022/12/24 09:34:31;;;;;;;59.25;7.70;;;8.30;99.90;;;;;;5030880;28;20044;-83
2022/12/24 09:37:05;;;;;;;51.95;7.35;;;8.40;99.90;;;;;;5032544;28;20104;-83
2022/12/24 09:39:35;;;;;;;55.95;7.85;;;8.40;99.90;;;;;;5031972;28;20049;-83
2022/12/24 09:42:27;;;;;;;62.50;7.10;;;8.20;99.90;;;;;;5012787;28;20824;-84
2022/12/24 09:45:01;;;;;;;60.22;7.35;;;8.50;99.90;;;;;;5030911;28;20045;-84
2022/12/24 09:47:41;;;;;;;59.97;6.80;;;8.10;99.90;;;;;;5031162;28;20072;-84
2022/12/24 09:50:27;;;;;;;58.35;7.40;;;8.40;99.90;;;;;;5030915;28;20527;-85
2022/12/24 09:53:00;;;;;;;66.85;7.97;;;8.10;99.90;;;;;;5044723;28;20062;-83
2022/12/24 09:55:31;;;;;;;59.08;7.18;;;8.40;99.90;;;;;;5031953;28;20428;-84
2022/12/24 09:58:01;;;;;;;54.95;8.15;;;8.60;99.90;;;;;;5015462;28;20040;-84
2022/12/24 10:00:53;;;;;;;59.42;7.53;;;8.40;99.90;;;;;;5032554;28;20499;-83
2022/12/24 10:03:22;;;;;;;48.40;7.05;;;8.40;99.90;;;;;;5032215;28;20057;-84
2022/12/24 10:06:12;;;;;;;56.25;7.45;;;8.00;99.90;;;;;;5031857;28;20067;-84
2022/12/24 10:09:09;;;;;;;59.13;8.57;;;8.50;99.90;;;;;;5033675;28;20056;-93
2022/12/24 10:11:45;;;;;;;64.13;7.80;;;8.40;99.90;;;;;;5031221;28;20178;-87
2022/12/24 10:14:20;;;;;;;52.20;7.78;;;8.60;99.90;;;;;;5014689;28;20049;-87
2022/12/24 10:17:04;;;;;;;66.38;8.80;;;8.70;99.90;;;;;;5027717;28;20053;-84
2022/12/24 10:19:43;;;;;;;56.92;7.00;;;8.60;99.90;;;;;;5018290;28;20051;-83
2022/12/24 10:22:26;;;;;;;55.10;7.70;;;8.70;99.90;;;;;;5049021;28;20049;-84
2022/12/24 10:25:03;;;;;;;58.35;7.75;;;8.90;99.90;;;;;;5048723;28;20053;-84
2022/12/24 10:27:36;;;;;;;51.47;7.78;;;8.80;99.90;;;;;;5030243;28;20489;-84
2022/12/24 10:30:05;;;;;;;;;;;8.70;99.90;;;;;;5032205;28;20428;-83
2022/12/24 10:32:34;;;;;;;54.58;8.65;;;8.70;99.90;;;;;;5032519;28;20351;-84
2022/12/24 10:35:22;;;;;;;49.33;6.53;;;8.70;99.90;;;;;;5030676;28;20057;-83
2022/12/24 10:37:51;;;;;;;52.13;7.70;;;9.00;99.90;;;;;;5031276;28;20076;-83
2022/12/24 10:40:34;;;;;;;55.97;7.40;;;8.90;99.90;;;;;;5031889;28;20129;-84
2022/12/24 10:43:00;;;;;;;53.63;7.15;;;9.10;99.90;;;;;;5030344;28;20055;-83
2022/12/24 10:45:35;;;;;;;41.20;7.82;;;9.10;99.90;;;;;;5031889;28;20049;-83
2022/12/24 10:48:17;;;;;;;55.28;7.07;;;9.10;99.90;;;;;;5013823;28;20391;-85
2022/12/24 10:50:54;;;;;;;57.80;8.02;;;9.20;99.90;;;;;;5031542;28;20152;-84
2022/12/24 10:53:31;;;;;;;53.92;7.13;;;9.30;99.90;;;;;;5031814;28;20051;-84
2022/12/24 10:56:03;;;;;;;54.53;7.28;;;9.20;99.90;;;;;;5030265;28;20128;-83
2022/12/24 10:58:30;;;;;;;46.90;7.00;;;9.50;99.90;;;;;;5031048;28;20098;-83
2022/12/24 11:00:55;;;;;;;40.80;6.95;;;9.40;99.90;;;;;;5031446;28;20456;-84
2022/12/24 11:03:28;;;;;;;51.58;6.47;;;9.30;99.90;;;;;;5030521;28;20481;-84
2022/12/24 11:06:00;;;;;;;49.43;7.93;;;9.30;99.90;;;;;;5031308;28;20131;-85
2022/12/24 11:08:28;;;;;;;51.72;8.38;;;9.40;99.90;;;;;;5031587;28;20049;-84
2022/12/24 11:11:00;;;;;;;44.58;7.53;;;9.50;99.90;;;;;;5013402;28;20044;-85
2022/12/24 11:13:27;;;;;;;46.45;6.90;;;9.40;99.90;;;;;;5030654;28;20085;-84
2022/12/24 11:16:10;;;;;;;48.17;6.60;;;9.50;99.90;;;;;;5029633;28;20091;-84
2022/12/24 11:18:43;;;;;;;45.97;6.22;;;9.40;99.90;;;;;;5014204;28;20136;-86
2022/12/24 11:21:11;;;;;;;39.05;6.68;;;9.40;99.90;;;;;;5014740;28;20059;-85
2022/12/24 11:23:37;;;;;;;53.10;7.95;;;9.40;99.90;;;;;;5013281;28;20052;-84
2022/12/24 11:26:02;;;;;;;39.00;6.88;;;9.20;99.90;;;;;;5030595;28;20041;-84
2022/12/24 11:28:32;;;;;;;42.65;6.88;;;9.30;99.90;;;;;;5030110;28;20063;-84
2022/12/24 11:31:02;;;;;;;38.83;5.47;;;9.30;99.90;;;;;;5029673;28;20131;-84
2022/12/24 11:33:29;;;;;;;38.97;5.95;;;9.40;99.90;;;;;;5013918;28;20049;-84
2022/12/24 11:36:01;;;;;;;44.58;5.82;;;9.40;99.90;;;;;;5030262;28;20036;-84
2022/12/24 11:38:28;;;;;;;35.78;7.15;;;9.40;99.90;;;;;;5012885;28;20102;-84
2022/12/24 11:41:06;;;;;;;36.50;5.88;;;9.30;99.90;;;;;;5030482;28;20122;-84
2022/12/24 11:43:43;;;;;;;48.35;6.53;;;9.50;99.90;;;;;;5029765;28;20045;-83
2022/12/24 11:46:13;;;;;;;41.03;6.00;;;9.40;99.90;;;;;;5013272;28;20079;-84
2022/12/24 11:48:39;;;;;;;37.42;5.47;;;9.60;99.90;;;;;;5013743;28;20041;-84
2022/12/24 11:51:18;;;;;;;34.75;4.93;;;9.30;99.90;;;;;;5012943;28;20045;-85
2022/12/24 11:53:47;;;;;;;40.78;5.72;;;9.50;99.90;;;;;;5012936;28;20053;-84
2022/12/24 11:56:26;;;;;;;28.60;4.72;;;9.50;99.90;;;;;;5014769;28;20049;-84
2022/12/24 11:58:57;;;;;;;36.78;5.18;;;9.50;99.90;;;;;;5011828;28;20045;-84
2022/12/24 12:01:29;;;;;;;29.00;4.50;;;9.50;99.90;;;;;;5030231;28;20037;-85
2022/12/24 12:04:03;;;;;;;35.10;5.05;;;9.30;99.90;;;;;;5013207;28;20048;-84
2022/12/24 12:06:38;;;;;;;41.05;6.32;;;9.30;99.90;;;;;;5013978;28;20381;-83
2022/12/24 12:09:13;;;;;;;43.15;5.63;;;9.40;99.90;;;;;;5012830;28;20098;-84
2022/12/24 12:11:42;;;;;;;38.20;5.25;;;9.40;99.90;;;;;;5014269;28;20088;-83
2022/12/24 12:14:21;;;;;;;40.30;5.10;;;9.40;99.90;;;;;;5029262;28;20052;-83
2022/12/24 12:17:06;;;;;;;42.97;5.78;;;9.40;99.90;;;;;;5027647;28;20505;-83
2022/12/24 12:19:42;;;;;;;33.50;5.22;;;9.50;99.90;;;;;;5029784;28;20045;-85
2022/12/24 12:22:26;;;;;;;26.73;4.47;;;9.30;99.90;;;;;;5030167;28;20099;-83
2022/12/24 12:24:55;;;;;;;30.80;5.63;;;9.30;99.90;;;;;;5029102;28;20049;-84
2022/12/24 12:27:32;;;;;;;30.92;4.75;;;9.30;99.90;;;;;;5012433;28;20083;-83
2022/12/24 12:30:03;;;;;;;34.97;4.72;;;9.20;99.90;;;;;;5013394;28;20049;-84
2022/12/24 12:32:36;;;;;;;30.83;5.38;;;9.20;99.90;;;;;;5029699;28;20396;-84
2022/12/24 12:35:13;;;;;;;;;;;9.20;99.90;;;;;;5013228;28;20349;-83
2022/12/24 12:37:43;;;;;;;27.75;4.82;;;9.20;99.90;;;;;;5013454;28;20371;-83
2022/12/24 12:40:45;;;;;;;27.10;3.75;;;9.20;99.90;;;;;;5029367;28;20068;-85
2022/12/24 12:43:23;;;;;;;27.63;4.00;;;9.10;99.90;;;;;;5028760;28;20088;-83
2022/12/24 12:45:59;;;;;;;26.38;3.53;;;9.20;99.90;;;;;;5029332;28;20391;-84
2022/12/24 12:48:46;;;;;;;26.13;4.28;;;9.30;99.90;;;;;;5029045;28;20099;-84
2022/12/24 12:51:23;;;;;;;30.80;4.43;;;9.30;99.90;;;;;;5029914;28;20120;-85
2022/12/24 12:54:10;;;;;;;32.13;4.35;;;9.40;99.90;;;;;;5045671;28;20056;-84
2022/12/24 12:56:38;;;;;;;37.00;4.85;;;9.40;99.90;;;;;;5029388;28;20091;-84
2022/12/24 12:59:10;;;;;;;27.95;4.38;;;9.60;99.90;;;;;;5011354;28;20045;-84
2022/12/24 13:01:58;;;;;;;31.60;3.90;;;9.60;99.90;;;;;;5012490;28;20045;-83
2022/12/24 13:08:46;;;;;;;34.05;5.63;;;9.50;99.90;;;;;;5016624;28;20067;-84
2022/12/24 13:11:22;;;;;;;31.52;4.50;;;8.90;99.90;;;;;;5013768;28;20053;-86
2022/12/24 13:14:05;;;;;;;32.20;4.72;;;9.50;99.90;;;;;;5011709;28;20067;-85
2022/12/24 13:16:54;;;;;;;31.33;4.43;;;9.40;99.90;;;;;;5029034;28;20048;-85
2022/12/24 13:19:34;;;;;;;32.45;4.95;;;9.50;99.90;;;;;;5012519;28;20056;-84
2022/12/24 13:22:03;;;;;;;27.30;4.47;;;9.40;99.90;;;;;;5028190;28;20098;-84
2022/12/24 13:24:31;;;;;;;28.02;4.15;;;9.40;99.90;;;;;;5028711;28;20585;-84
2022/12/24 13:27:18;;;;;;;36.42;4.90;;;9.40;99.90;;;;;;5027891;28;20102;-85
2022/12/24 13:29:56;;;;;;;26.33;3.70;;;9.50;99.90;;;;;;5028145;28;20041;-85
2022/12/24 13:32:26;;;;;;;31.23;4.80;;;9.40;99.90;;;;;;5028760;28;20132;-86
2022/12/24 13:38:55;;;;;;;;;;;;;;;;;;;;;
2022/12/24 13:44:40;;;;;;;36.38;4.28;;;9.20;99.90;;;;;;4954586;28;20050;-83
2022/12/24 13:47:12;;;;;;;33.40;4.22;;;9.20;99.90;;;;;;4989456;28;20054;-82
2022/12/24 13:49:42;;;;;;;25.33;3.63;;;9.20;99.90;;;;;;4989917;28;20138;-83
2022/12/24 13:52:11;;;;;;;25.75;4.00;;;8.90;99.90;;;;;;4988446;28;20093;-84
2022/12/24 13:54:56;;;;;;;27.70;3.85;;;9.20;99.90;;;;;;4974129;28;20493;-85
2022/12/24 13:57:32;;;;;;;20.88;2.92;;;9.20;99.90;;;;;;4973010;28;20157;-86
2022/12/24 14:01:24;;;;;;;25.35;4.47;;;9.10;99.90;;;;;;4989678;28;20077;-84
2022/12/24 14:07:21;;;;;;;;;;;;;;;;;;;;;
2022/12/24 14:09:56;;;;;;;28.63;4.28;;;9.00;99.90;;;;;;4986985;28;20125;-84
2022/12/24 14:12:47;;;;;;;26.58;3.97;;;8.80;99.90;;;;;;4991977;28;20477;-85
2022/12/24 14:15:44;;;;;;;20.80;3.28;;;9.00;99.90;;;;;;4977254;28;20410;-84
2022/12/24 14:18:27;;;;;;;;;;;;;;;;;;;;;
2022/12/24 14:21:32;;;;;;;21.60;3.08;;;8.90;99.90;;;;;;4992152;28;20501;-86
2022/12/24 14:24:49;;;;;;;;;;;;;;;;;;;;;
2022/12/24 14:27:38;;;;;;;26.83;3.53;;;8.90;99.90;;;;;;4991649;28;20112;-86
2022/12/24 14:30:47;;;;;;;33.40;4.93;;;8.90;99.90;;;;;;4992247;28;20057;-84
2022/12/24 14:36:23;;;;;;;30.48;4.15;;;8.80;99.90;;;;;;4909258;28;20054;-84
2022/12/24 14:38:52;;;;;;;31.88;4.10;;;8.70;99.90;;;;;;4977667;28;20069;-84
2022/12/24 14:41:36;;;;;;;27.40;4.45;;;8.70;99.90;;;;;;5014644;28;20049;-85
2022/12/24 14:44:15;;;;;;;20.58;3.42;;;8.70;99.90;;;;;;5014140;28;20424;-85
2022/12/24 14:47:05;;;;;;;24.45;3.67;;;8.60;99.90;;;;;;5031797;28;20048;-84
2022/12/24 14:50:04;;;;;;;22.92;3.83;;;8.60;99.90;;;;;;5015441;28;20091;-85
2022/12/24 14:52:53;;;;;;;24.83;3.85;;;8.60;99.90;;;;;;5031575;28;20049;-84
2022/12/24 14:55:29;;;;;;;24.23;4.07;;;8.50;99.90;;;;;;5014694;28;20060;-85
2022/12/24 14:58:25;;;;;;;29.05;4.10;;;8.50;99.90;;;;;;5030031;28;20487;-85
2022/12/24 15:01:00;;;;;;;23.67;3.92;;;8.60;99.90;;;;;;5014423;28;20482;-85
2022/12/24 15:03:36;;;;;;;28.33;3.92;;;8.50;99.90;;;;;;5015240;28;20092;-85
2022/12/24 15:06:08;;;;;;;23.85;3.78;;;8.50;99.90;;;;;;5014439;28;20049;-85
2022/12/24 15:08:43;;;;;;;29.77;3.65;;;8.60;99.90;;;;;;5030855;28;20045;-84
2022/12/24 15:11:20;;;;;;;20.30;3.60;;;8.50;99.90;;;;;;5032193;28;20386;-85
2022/12/24 15:13:53;;;;;;;23.60;3.83;;;8.50;99.90;;;;;;5030231;28;20056;-85
2022/12/24 15:16:30;;;;;;;22.35;3.42;;;8.50;99.90;;;;;;5030266;28;20045;-84
2022/12/24 15:19:19;;;;;;;23.42;4.30;;;8.40;99.90;;;;;;5030301;28;20057;-83
2022/12/24 15:21:45;;;;;;;31.10;4.18;;;8.40;99.90;;;;;;5013290;28;20228;-83
2022/12/24 15:24:31;;;;;;;26.25;3.90;;;8.30;99.90;;;;;;5030580;28;20487;-83
2022/12/24 15:26:58;;;;;;;28.58;4.30;;;7.60;99.90;;;;;;5030207;28;20072;-83
2022/12/24 15:29:28;;;;;;;30.30;4.25;;;8.20;99.90;;;;;;5029687;28;20505;-83
2022/12/24 15:32:03;;;;;;;21.13;4.25;;;8.20;99.90;;;;;;5030239;28;20492;-82
2022/12/24 15:34:39;;;;;;;27.73;3.70;;;8.00;99.90;;;;;;5014787;28;20134;-84
2022/12/24 15:37:20;;;;;;;25.08;4.40;;;7.90;99.90;;;;;;5012614;28;20106;-84
2022/12/24 15:39:54;;;;;;;26.02;3.70;;;7.80;99.90;;;;;;5029727;28;20091;-84
2022/12/24 15:42:21;;;;;;;25.70;4.20;;;7.70;99.90;;;;;;5030523;28;20052;-83
2022/12/24 15:45:27;;;;;;;27.27;3.97;;;7.60;99.90;;;;;;5029663;28;20186;-83
2022/12/24 15:47:56;;;;;;;26.88;3.95;;;7.60;99.90;;;;;;5013307;28;20106;-83
2022/12/24 15:50:33;;;;;;;26.55;4.63;;;7.40;99.90;;;;;;5030487;28;20563;-83
2022/12/24 15:53:05;;;;;;;29.08;4.07;;;7.30;99.90;;;;;;5030017;28;20048;-83
2022/12/24 15:55:35;;;;;;;30.02;4.75;;;7.30;99.90;;;;;;5014132;28;20378;-83
2022/12/24 15:58:28;;;;;;;20.10;4.13;;;7.10;99.90;;;;;;5028923;28;20091;-83
2022/12/24 16:01:03;;;;;;;27.98;4.82;;;7.20;99.90;;;;;;5029746;28;20098;-84
2022/12/24 16:03:32;;;;;;;24.15;3.80;;;7.00;99.90;;;;;;5030313;28;20060;-83
2022/12/24 16:06:04;;;;;;;23.75;4.13;;;7.00;99.90;;;;;;5012625;28;20511;-85